FDB124 HEMA-LGAV
Flight info
| Callsign | FDB124 |
|---|---|
| Flight time | 2h 23m |
| Altitude | 36000 |
| Route | SIBRI1A SIBRI DCT HGD DCT CVO DCT ANTAR UN133 KPC UN137 PEROK/N0363F240 N137 RIPLI L995 VARIX |
| Aircraft | B738/M-SDE2E3FGHIRWXY/LB1 |
Departure
| Time | 2026-04-23 17:23 |
|---|---|
| Airport | Marsa Alam International Airport (HEMA) |
Arrival
| Time | 2026-04-23 19:46 |
|---|---|
| Airport | Athens Eleftherios Venizelos International Airport (LGAV) |
| Time | Latitude | Longitude | Altitude | Speed | Heading |
|---|---|---|---|---|---|
| 2026-04-23 17:07 | 25.55508 | 34.59086 | 261 ft | 0 kts | 59° |
| 2026-04-23 17:15 | 25.55506 | 34.59082 | 261 ft | 2 kts | 60° |
| 2026-04-23 17:16 | 25.55498 | 34.59068 | 261 ft | 2 kts | 59° |
| 2026-04-23 17:16 | 25.55491 | 34.59054 | 261 ft | 2 kts | 59° |
| 2026-04-23 17:16 | 25.55483 | 34.59040 | 261 ft | 2 kts | 59° |
| 2026-04-23 17:16 | 25.55475 | 34.59025 | 261 ft | 2 kts | 75° |
| 2026-04-23 17:17 | 25.55476 | 34.59008 | 261 ft | 2 kts | 111° |
| 2026-04-23 17:17 | 25.55484 | 34.58995 | 261 ft | 1 kts | 144° |
| 2026-04-23 17:17 | 25.55489 | 34.58992 | 261 ft | 1 kts | 154° |
| 2026-04-23 17:17 | 25.55492 | 34.58990 | 261 ft | 0 kts | 150° |
| 2026-04-23 17:19 | 25.55484 | 34.58995 | 261 ft | 2 kts | 150° |
| 2026-04-23 17:19 | 25.55461 | 34.59009 | 261 ft | 5 kts | 150° |
| 2026-04-23 17:19 | 25.55418 | 34.59036 | 261 ft | 8 kts | 150° |
| 2026-04-23 17:20 | 25.55354 | 34.59077 | 261 ft | 12 kts | 150° |
| 2026-04-23 17:20 | 25.55229 | 34.59152 | 261 ft | 0 kts | 167° |
| 2026-04-23 17:21 | 25.55190 | 34.59124 | 261 ft | 6 kts | 232° |
| 2026-04-23 17:21 | 25.55156 | 34.59068 | 261 ft | 10 kts | 238° |
| 2026-04-23 17:21 | 25.55059 | 34.58884 | 261 ft | 16 kts | 243° |
| 2026-04-23 17:22 | 25.55107 | 34.58778 | 261 ft | 25 kts | 328° |
| 2026-04-23 17:22 | 25.56136 | 34.58117 | 261 ft | 138 kts | 330° |
| 2026-04-23 17:23 | 25.58112 | 34.56864 | 833 ft | 172 kts | 330° |
| 2026-04-23 17:23 | 25.59131 | 34.56225 | 1412 ft | 169 kts | 330° |
| 2026-04-23 17:23 | 25.61356 | 34.54882 | 1994 ft | 203 kts | 329° |
| 2026-04-23 17:24 | 25.62609 | 34.53986 | 2181 ft | 229 kts | 329° |
| 2026-04-23 17:24 | 25.64175 | 34.53436 | 2554 ft | 249 kts | 351° |
| 2026-04-23 17:24 | 25.67679 | 34.52691 | 3811 ft | 263 kts | 345° |
| 2026-04-23 17:25 | 25.71101 | 34.51304 | 5177 ft | 267 kts | 322° |
| 2026-04-23 17:25 | 25.72562 | 34.50089 | 5934 ft | 268 kts | 323° |
| 2026-04-23 17:26 | 25.75714 | 34.47780 | 7303 ft | 276 kts | 325° |
| 2026-04-23 17:26 | 25.78952 | 34.45478 | 8679 ft | 283 kts | 325° |
| 2026-04-23 17:27 | 25.82301 | 34.43117 | 10020 ft | 292 kts | 325° |
| 2026-04-23 17:27 | 25.84090 | 34.41853 | 10158 ft | 317 kts | 325° |
| 2026-04-23 17:27 | 25.86012 | 34.40497 | 10398 ft | 335 kts | 325° |
| 2026-04-23 17:27 | 25.87994 | 34.39103 | 10842 ft | 346 kts | 325° |
| 2026-04-23 17:28 | 25.90050 | 34.37654 | 11448 ft | 352 kts | 325° |
| 2026-04-23 17:28 | 25.92111 | 34.36201 | 12048 ft | 357 kts | 325° |
| 2026-04-23 17:28 | 25.94204 | 34.34726 | 12739 ft | 360 kts | 324° |
| 2026-04-23 17:28 | 25.96296 | 34.33250 | 13396 ft | 363 kts | 324° |
| 2026-04-23 17:29 | 25.98415 | 34.31754 | 14055 ft | 366 kts | 324° |
| 2026-04-23 17:29 | 26.00575 | 34.30229 | 14721 ft | 369 kts | 324° |
| 2026-04-23 17:29 | 26.04911 | 34.27164 | 15998 ft | 374 kts | 324° |
| 2026-04-23 17:30 | 26.07127 | 34.25594 | 16172 ft | 390 kts | 324° |
| 2026-04-23 17:30 | 26.11998 | 34.22147 | 16925 ft | 407 kts | 324° |
| 2026-04-23 17:30 | 26.14436 | 34.20419 | 17429 ft | 410 kts | 324° |
| 2026-04-23 17:31 | 26.16833 | 34.18722 | 17928 ft | 413 kts | 324° |
| 2026-04-23 17:31 | 26.19276 | 34.16989 | 18451 ft | 415 kts | 324° |
| 2026-04-23 17:31 | 26.21696 | 34.15274 | 18884 ft | 419 kts | 324° |
| 2026-04-23 17:31 | 26.24138 | 34.13540 | 19446 ft | 418 kts | 324° |
| 2026-04-23 17:32 | 26.26613 | 34.11782 | 19809 ft | 424 kts | 324° |
| 2026-04-23 17:32 | 26.29068 | 34.10037 | 20336 ft | 423 kts | 323° |
| 2026-04-23 17:32 | 26.31557 | 34.08268 | 20764 ft | 426 kts | 323° |
| 2026-04-23 17:32 | 26.34046 | 34.06497 | 21178 ft | 429 kts | 323° |
| 2026-04-23 17:33 | 26.36577 | 34.04696 | 21637 ft | 430 kts | 323° |
| 2026-04-23 17:33 | 26.39068 | 34.02923 | 22011 ft | 432 kts | 323° |
| 2026-04-23 17:33 | 26.41626 | 34.01100 | 22417 ft | 434 kts | 323° |
| 2026-04-23 17:33 | 26.44140 | 33.99309 | 22793 ft | 436 kts | 323° |
| 2026-04-23 17:34 | 26.46707 | 33.97478 | 23163 ft | 438 kts | 323° |
| 2026-04-23 17:34 | 26.49264 | 33.95654 | 23527 ft | 439 kts | 323° |
| 2026-04-23 17:34 | 26.54417 | 33.91974 | 24223 ft | 443 kts | 323° |
| 2026-04-23 17:35 | 26.57011 | 33.90120 | 24559 ft | 444 kts | 323° |
| 2026-04-23 17:35 | 26.62211 | 33.86400 | 25205 ft | 447 kts | 323° |
| 2026-04-23 17:35 | 26.64830 | 33.84526 | 25503 ft | 449 kts | 323° |
| 2026-04-23 17:36 | 26.67434 | 33.82661 | 25965 ft | 446 kts | 323° |
| 2026-04-23 17:36 | 26.70039 | 33.80798 | 26521 ft | 442 kts | 323° |
| 2026-04-23 17:36 | 26.72625 | 33.78943 | 26906 ft | 441 kts | 323° |
| 2026-04-23 17:36 | 26.75189 | 33.77104 | 27351 ft | 439 kts | 323° |
| 2026-04-23 17:37 | 26.77714 | 33.75292 | 27790 ft | 436 kts | 323° |
| 2026-04-23 17:37 | 26.80281 | 33.73449 | 28176 ft | 435 kts | 323° |
| 2026-04-23 17:37 | 26.85323 | 33.69825 | 28982 ft | 432 kts | 323° |
| 2026-04-23 17:38 | 26.87824 | 33.68026 | 29364 ft | 430 kts | 323° |
| 2026-04-23 17:38 | 26.90313 | 33.66235 | 29788 ft | 427 kts | 323° |
| 2026-04-23 17:38 | 26.92814 | 33.64435 | 30228 ft | 424 kts | 322° |
| 2026-04-23 17:38 | 26.95282 | 33.62658 | 30623 ft | 421 kts | 322° |
| 2026-04-23 17:39 | 26.97710 | 33.60908 | 31035 ft | 418 kts | 322° |
| 2026-04-23 17:39 | 27.00147 | 33.59151 | 31426 ft | 415 kts | 322° |
| 2026-04-23 17:39 | 27.02534 | 33.57429 | 31821 ft | 412 kts | 321° |
| 2026-04-23 17:39 | 27.04934 | 33.55696 | 32187 ft | 409 kts | 321° |
| 2026-04-23 17:40 | 27.07316 | 33.53975 | 32481 ft | 408 kts | 321° |
| 2026-04-23 17:40 | 27.09684 | 33.52264 | 32794 ft | 406 kts | 321° |
| 2026-04-23 17:40 | 27.12044 | 33.50557 | 33101 ft | 405 kts | 321° |
| 2026-04-23 17:40 | 27.14397 | 33.48856 | 33370 ft | 404 kts | 321° |
| 2026-04-23 17:41 | 27.16755 | 33.47149 | 33669 ft | 402 kts | 321° |
| 2026-04-23 17:41 | 27.21431 | 33.43763 | 34193 ft | 400 kts | 321° |
| 2026-04-23 17:41 | 27.23754 | 33.42078 | 34421 ft | 399 kts | 321° |
| 2026-04-23 17:42 | 27.28382 | 33.38721 | 34874 ft | 398 kts | 321° |
| 2026-04-23 17:42 | 27.30714 | 33.37028 | 35088 ft | 398 kts | 321° |
| 2026-04-23 17:42 | 27.33028 | 33.35348 | 35300 ft | 397 kts | 321° |
| 2026-04-23 17:43 | 27.35327 | 33.33676 | 35532 ft | 396 kts | 321° |
| 2026-04-23 17:43 | 27.37642 | 33.31994 | 35769 ft | 396 kts | 321° |
| 2026-04-23 17:43 | 27.39952 | 33.30312 | 35827 ft | 399 kts | 321° |
| 2026-04-23 17:44 | 27.44637 | 33.26897 | 35831 ft | 406 kts | 321° |
| 2026-04-23 17:44 | 27.51731 | 33.21730 | 35830 ft | 403 kts | 321° |
| 2026-04-23 17:45 | 27.58796 | 33.16568 | 35819 ft | 409 kts | 321° |
| 2026-04-23 17:46 | 27.66000 | 33.11299 | 35808 ft | 416 kts | 321° |
| 2026-04-23 17:46 | 27.70832 | 33.07764 | 35804 ft | 417 kts | 321° |
| 2026-04-23 17:47 | 27.75706 | 33.04191 | 35803 ft | 417 kts | 321° |
| 2026-04-23 17:48 | 27.83005 | 32.98834 | 35803 ft | 419 kts | 321° |
| 2026-04-23 17:48 | 27.87854 | 32.95270 | 35804 ft | 421 kts | 321° |
| 2026-04-23 17:49 | 27.92756 | 32.91663 | 35803 ft | 422 kts | 320° |
| 2026-04-23 17:49 | 27.97655 | 32.88055 | 35804 ft | 423 kts | 320° |
| 2026-04-23 17:50 | 28.02599 | 32.84409 | 35803 ft | 424 kts | 320° |
| 2026-04-23 17:50 | 28.09953 | 32.78980 | 35804 ft | 423 kts | 320° |
| 2026-04-23 17:51 | 28.14910 | 32.75314 | 35804 ft | 423 kts | 320° |
| 2026-04-23 17:52 | 28.22274 | 32.69862 | 35804 ft | 423 kts | 320° |
| 2026-04-23 17:52 | 28.29617 | 32.64416 | 35804 ft | 423 kts | 320° |
| 2026-04-23 17:53 | 28.36999 | 32.58932 | 35804 ft | 423 kts | 320° |
| 2026-04-23 17:54 | 28.41912 | 32.55277 | 35804 ft | 423 kts | 320° |
| 2026-04-23 17:54 | 28.49262 | 32.49801 | 35804 ft | 423 kts | 320° |
| 2026-04-23 17:55 | 28.56619 | 32.44311 | 35804 ft | 423 kts | 320° |
| 2026-04-23 17:56 | 28.61536 | 32.40636 | 35803 ft | 423 kts | 320° |
| 2026-04-23 17:56 | 28.68873 | 32.35145 | 35809 ft | 423 kts | 320° |
| 2026-04-23 17:57 | 28.73771 | 32.31474 | 35824 ft | 423 kts | 320° |
| 2026-04-23 17:58 | 28.81127 | 32.25954 | 35865 ft | 422 kts | 320° |
| 2026-04-23 17:58 | 28.86017 | 32.22279 | 35881 ft | 423 kts | 320° |
| 2026-04-23 17:59 | 28.90910 | 32.18597 | 35898 ft | 423 kts | 320° |
| 2026-04-23 17:59 | 28.95795 | 32.14917 | 35912 ft | 423 kts | 320° |
| 2026-04-23 18:00 | 29.00681 | 32.11234 | 35912 ft | 421 kts | 319° |
| 2026-04-23 18:00 | 29.05526 | 32.07578 | 35912 ft | 418 kts | 319° |
| 2026-04-23 18:01 | 29.10339 | 32.03940 | 35912 ft | 415 kts | 317° |
| 2026-04-23 18:01 | 29.15146 | 32.00302 | 35912 ft | 414 kts | 317° |
| 2026-04-23 18:02 | 29.19936 | 31.96671 | 35912 ft | 415 kts | 317° |
| 2026-04-23 18:02 | 29.24740 | 31.93027 | 35912 ft | 415 kts | 317° |
| 2026-04-23 18:03 | 29.29522 | 31.89397 | 35911 ft | 414 kts | 317° |
| 2026-04-23 18:03 | 29.34289 | 31.85773 | 35912 ft | 414 kts | 317° |
| 2026-04-23 18:04 | 29.39096 | 31.82113 | 35912 ft | 414 kts | 317° |
| 2026-04-23 18:04 | 29.43869 | 31.78477 | 35912 ft | 415 kts | 317° |
| 2026-04-23 18:05 | 29.48670 | 31.74814 | 35912 ft | 415 kts | 317° |
| 2026-04-23 18:05 | 29.53433 | 31.71178 | 35912 ft | 415 kts | 317° |
| 2026-04-23 18:06 | 29.58216 | 31.67520 | 35912 ft | 415 kts | 317° |
| 2026-04-23 18:06 | 29.63008 | 31.63852 | 35912 ft | 415 kts | 317° |
| 2026-04-23 18:07 | 29.67802 | 31.60179 | 35911 ft | 414 kts | 317° |
| 2026-04-23 18:07 | 29.72573 | 31.56518 | 35858 ft | 415 kts | 317° |
| 2026-04-23 18:08 | 29.76572 | 31.53447 | 35857 ft | 415 kts | 317° |
| 2026-04-23 18:08 | 29.82145 | 31.49161 | 35857 ft | 415 kts | 317° |
| 2026-04-23 18:09 | 29.86949 | 31.45462 | 35858 ft | 416 kts | 317° |
| 2026-04-23 18:09 | 29.91747 | 31.41764 | 35857 ft | 416 kts | 317° |
| 2026-04-23 18:10 | 29.96543 | 31.38063 | 35858 ft | 415 kts | 317° |
| 2026-04-23 18:10 | 30.01323 | 31.34370 | 35858 ft | 415 kts | 317° |
| 2026-04-23 18:11 | 30.06101 | 31.30671 | 35858 ft | 415 kts | 317° |
| 2026-04-23 18:11 | 30.10888 | 31.26966 | 35857 ft | 415 kts | 317° |
| 2026-04-23 18:12 | 30.15667 | 31.23261 | 35858 ft | 414 kts | 317° |
| 2026-04-23 18:12 | 30.20427 | 31.19566 | 35857 ft | 415 kts | 317° |
| 2026-04-23 18:13 | 30.25215 | 31.15845 | 35858 ft | 415 kts | 317° |
| 2026-04-23 18:13 | 30.30000 | 31.12120 | 35858 ft | 417 kts | 317° |
| 2026-04-23 18:14 | 30.34787 | 31.08392 | 35857 ft | 417 kts | 316° |
| 2026-04-23 18:14 | 30.39579 | 31.04653 | 35858 ft | 418 kts | 316° |
| 2026-04-23 18:15 | 30.44408 | 31.00881 | 35858 ft | 419 kts | 316° |
| 2026-04-23 18:15 | 30.49225 | 30.97116 | 35858 ft | 420 kts | 316° |
| 2026-04-23 18:16 | 30.54058 | 30.93333 | 35859 ft | 420 kts | 316° |
| 2026-04-23 18:16 | 30.58873 | 30.89559 | 35869 ft | 420 kts | 316° |
| 2026-04-23 18:17 | 30.66096 | 30.83889 | 35906 ft | 421 kts | 316° |
| 2026-04-23 18:17 | 30.70940 | 30.80081 | 35930 ft | 419 kts | 316° |
| 2026-04-23 18:18 | 30.75740 | 30.76303 | 35939 ft | 419 kts | 316° |
| 2026-04-23 18:18 | 30.80537 | 30.72522 | 35938 ft | 420 kts | 316° |
| 2026-04-23 18:19 | 30.85370 | 30.68707 | 35938 ft | 420 kts | 316° |
| 2026-04-23 18:19 | 30.90177 | 30.64911 | 35939 ft | 419 kts | 316° |
| 2026-04-23 18:20 | 30.94972 | 30.61120 | 35939 ft | 417 kts | 315° |
| 2026-04-23 18:20 | 30.99743 | 30.57344 | 35941 ft | 413 kts | 315° |
| 2026-04-23 18:21 | 31.04457 | 30.53604 | 35939 ft | 412 kts | 314° |
| 2026-04-23 18:21 | 31.09203 | 30.49836 | 35938 ft | 411 kts | 314° |
| 2026-04-23 18:22 | 31.13915 | 30.46089 | 35919 ft | 412 kts | 314° |
| 2026-04-23 18:22 | 31.18616 | 30.42348 | 35912 ft | 411 kts | 314° |
| 2026-04-23 18:23 | 31.25690 | 30.36709 | 35912 ft | 412 kts | 314° |
| 2026-04-23 18:24 | 31.32774 | 30.31052 | 35911 ft | 412 kts | 314° |
| 2026-04-23 18:25 | 31.39835 | 30.25404 | 35911 ft | 411 kts | 314° |
| 2026-04-23 18:25 | 31.44540 | 30.21632 | 35912 ft | 412 kts | 314° |
| 2026-04-23 18:26 | 31.49258 | 30.17849 | 35912 ft | 411 kts | 314° |
| 2026-04-23 18:26 | 31.53969 | 30.14064 | 35912 ft | 411 kts | 314° |
| 2026-04-23 18:27 | 31.58644 | 30.10304 | 35912 ft | 411 kts | 314° |
| 2026-04-23 18:27 | 31.63353 | 30.06511 | 35911 ft | 412 kts | 314° |
| 2026-04-23 18:28 | 31.68068 | 30.02710 | 35912 ft | 412 kts | 314° |
| 2026-04-23 18:28 | 31.72780 | 29.98907 | 35911 ft | 412 kts | 314° |
| 2026-04-23 18:29 | 31.77451 | 29.95132 | 35912 ft | 411 kts | 314° |
| 2026-04-23 18:29 | 31.82160 | 29.91320 | 35912 ft | 411 kts | 314° |
| 2026-04-23 18:30 | 31.86842 | 29.87526 | 35912 ft | 411 kts | 314° |
| 2026-04-23 18:30 | 31.91563 | 29.83695 | 35912 ft | 412 kts | 314° |
| 2026-04-23 18:31 | 31.96242 | 29.79895 | 35911 ft | 412 kts | 314° |
| 2026-04-23 18:31 | 32.00963 | 29.76056 | 35911 ft | 411 kts | 314° |
| 2026-04-23 18:32 | 32.05657 | 29.72232 | 35911 ft | 411 kts | 314° |
| 2026-04-23 18:32 | 32.10319 | 29.68430 | 35911 ft | 412 kts | 314° |
| 2026-04-23 18:33 | 32.15040 | 29.64575 | 35912 ft | 411 kts | 314° |
| 2026-04-23 18:33 | 32.19716 | 29.60753 | 35912 ft | 411 kts | 314° |
| 2026-04-23 18:34 | 32.24408 | 29.56913 | 35911 ft | 412 kts | 314° |
| 2026-04-23 18:34 | 32.29093 | 29.53073 | 35912 ft | 411 kts | 314° |
| 2026-04-23 18:35 | 32.33778 | 29.49228 | 35912 ft | 412 kts | 314° |
| 2026-04-23 18:35 | 32.38480 | 29.45364 | 35912 ft | 412 kts | 314° |
| 2026-04-23 18:36 | 32.43166 | 29.41510 | 35912 ft | 412 kts | 314° |
| 2026-04-23 18:36 | 32.47820 | 29.37675 | 35912 ft | 412 kts | 314° |
| 2026-04-23 18:37 | 32.52509 | 29.33807 | 35911 ft | 412 kts | 313° |
| 2026-04-23 18:37 | 32.57189 | 29.29942 | 35937 ft | 410 kts | 313° |
| 2026-04-23 18:38 | 32.61869 | 29.26071 | 35939 ft | 410 kts | 313° |
| 2026-04-23 18:38 | 32.66522 | 29.22219 | 35938 ft | 410 kts | 313° |
| 2026-04-23 18:39 | 32.71186 | 29.18349 | 35939 ft | 411 kts | 313° |
| 2026-04-23 18:39 | 32.75847 | 29.14481 | 35939 ft | 411 kts | 313° |
| 2026-04-23 18:40 | 32.80514 | 29.10602 | 35938 ft | 411 kts | 313° |
| 2026-04-23 18:40 | 32.85183 | 29.06714 | 35938 ft | 411 kts | 313° |
| 2026-04-23 18:41 | 32.89832 | 29.02840 | 35939 ft | 411 kts | 313° |
| 2026-04-23 18:41 | 32.94514 | 28.98932 | 35938 ft | 411 kts | 313° |
| 2026-04-23 18:42 | 32.99184 | 28.95028 | 35938 ft | 413 kts | 314° |
| 2026-04-23 18:42 | 33.03899 | 28.91074 | 35938 ft | 422 kts | 315° |
| 2026-04-23 18:43 | 33.08736 | 28.87020 | 35939 ft | 430 kts | 317° |
| 2026-04-23 18:43 | 33.13647 | 28.82899 | 35940 ft | 438 kts | 319° |
| 2026-04-23 18:44 | 33.18631 | 28.78728 | 35939 ft | 439 kts | 319° |
| 2026-04-23 18:44 | 33.23595 | 28.74554 | 35938 ft | 437 kts | 319° |
| 2026-04-23 18:45 | 33.28554 | 28.70366 | 35938 ft | 437 kts | 319° |
| 2026-04-23 18:45 | 33.33503 | 28.66186 | 35940 ft | 438 kts | 319° |
| 2026-04-23 18:46 | 33.38452 | 28.61995 | 35939 ft | 437 kts | 319° |
| 2026-04-23 18:46 | 33.43404 | 28.57800 | 35940 ft | 437 kts | 319° |
| 2026-04-23 18:47 | 33.48375 | 28.53602 | 35939 ft | 438 kts | 319° |
| 2026-04-23 18:47 | 33.53316 | 28.49408 | 35939 ft | 437 kts | 319° |
| 2026-04-23 18:48 | 33.58267 | 28.45185 | 35939 ft | 438 kts | 319° |
| 2026-04-23 18:48 | 33.63275 | 28.41045 | 35938 ft | 440 kts | 322° |
| 2026-04-23 18:49 | 33.68539 | 28.37355 | 35939 ft | 442 kts | 324° |
| 2026-04-23 18:49 | 33.73723 | 28.33596 | 35936 ft | 439 kts | 320° |
| 2026-04-23 18:50 | 33.77786 | 28.29997 | 35938 ft | 436 kts | 317° |
| 2026-04-23 18:50 | 33.83460 | 28.25011 | 35939 ft | 436 kts | 318° |
| 2026-04-23 18:51 | 33.88388 | 28.20760 | 35939 ft | 437 kts | 318° |
| 2026-04-23 18:51 | 33.93302 | 28.16518 | 35939 ft | 437 kts | 319° |
| 2026-04-23 18:52 | 33.98198 | 28.12262 | 35938 ft | 437 kts | 318° |
| 2026-04-23 18:52 | 34.03126 | 28.07954 | 35938 ft | 437 kts | 318° |
| 2026-04-23 18:53 | 34.08020 | 28.03679 | 35938 ft | 437 kts | 318° |
| 2026-04-23 18:53 | 34.12857 | 27.99508 | 35939 ft | 437 kts | 319° |
| 2026-04-23 18:54 | 34.17786 | 27.95225 | 35938 ft | 437 kts | 318° |
| 2026-04-23 18:54 | 34.22681 | 27.90932 | 35939 ft | 436 kts | 318° |
| 2026-04-23 18:55 | 34.27572 | 27.86635 | 35939 ft | 436 kts | 318° |
| 2026-04-23 18:55 | 34.32500 | 27.82351 | 35938 ft | 437 kts | 319° |
| 2026-04-23 18:56 | 34.36586 | 27.78790 | 35939 ft | 437 kts | 318° |
| 2026-04-23 18:56 | 34.42279 | 27.73773 | 35938 ft | 437 kts | 318° |
| 2026-04-23 18:57 | 34.47193 | 27.69452 | 35939 ft | 437 kts | 318° |
| 2026-04-23 18:57 | 34.52077 | 27.65144 | 35939 ft | 437 kts | 318° |
| 2026-04-23 18:58 | 34.56981 | 27.60833 | 35939 ft | 436 kts | 319° |
| 2026-04-23 18:58 | 34.61889 | 27.56545 | 35939 ft | 437 kts | 319° |
| 2026-04-23 18:59 | 34.66809 | 27.52187 | 35940 ft | 437 kts | 318° |
| 2026-04-23 18:59 | 34.71693 | 27.47849 | 35940 ft | 437 kts | 319° |
| 2026-04-23 19:00 | 34.76574 | 27.43554 | 35939 ft | 437 kts | 319° |
| 2026-04-23 19:00 | 34.81482 | 27.39210 | 35938 ft | 437 kts | 318° |
| 2026-04-23 19:01 | 34.86364 | 27.34832 | 35939 ft | 437 kts | 317° |
| 2026-04-23 19:01 | 34.91336 | 27.30410 | 35939 ft | 438 kts | 319° |
| 2026-04-23 19:02 | 34.96285 | 27.26011 | 35939 ft | 442 kts | 320° |
| 2026-04-23 19:02 | 35.01252 | 27.21578 | 35939 ft | 446 kts | 321° |
| 2026-04-23 19:03 | 35.06238 | 27.17123 | 35939 ft | 449 kts | 321° |
| 2026-04-23 19:03 | 35.11273 | 27.12617 | 35938 ft | 449 kts | 321° |
| 2026-04-23 19:04 | 35.16311 | 27.08100 | 35939 ft | 448 kts | 321° |
| 2026-04-23 19:04 | 35.21293 | 27.03626 | 35939 ft | 447 kts | 321° |
| 2026-04-23 19:05 | 35.26277 | 26.99142 | 35939 ft | 446 kts | 321° |
| 2026-04-23 19:05 | 35.31261 | 26.94652 | 35939 ft | 445 kts | 320° |
| 2026-04-23 19:06 | 35.36223 | 26.90175 | 35939 ft | 445 kts | 320° |
| 2026-04-23 19:06 | 35.41207 | 26.85670 | 35939 ft | 444 kts | 320° |
| 2026-04-23 19:07 | 35.46132 | 26.81211 | 35939 ft | 444 kts | 320° |
| 2026-04-23 19:07 | 35.51093 | 26.76713 | 35939 ft | 444 kts | 320° |
| 2026-04-23 19:08 | 35.56052 | 26.72210 | 35939 ft | 445 kts | 320° |
| 2026-04-23 19:08 | 35.61001 | 26.67709 | 35939 ft | 444 kts | 320° |
| 2026-04-23 19:09 | 35.65957 | 26.63194 | 35939 ft | 444 kts | 320° |
| 2026-04-23 19:09 | 35.70909 | 26.58677 | 35939 ft | 444 kts | 320° |
| 2026-04-23 19:10 | 35.75849 | 26.54164 | 35939 ft | 444 kts | 320° |
| 2026-04-23 19:10 | 35.80797 | 26.49635 | 35939 ft | 445 kts | 320° |
| 2026-04-23 19:11 | 35.85762 | 26.45083 | 35939 ft | 445 kts | 320° |
| 2026-04-23 19:11 | 35.90708 | 26.40542 | 35939 ft | 444 kts | 320° |
| 2026-04-23 19:12 | 35.95649 | 26.35998 | 35946 ft | 445 kts | 320° |
| 2026-04-23 19:12 | 36.00592 | 26.31445 | 35957 ft | 444 kts | 320° |
| 2026-04-23 19:13 | 36.05506 | 26.26912 | 35967 ft | 444 kts | 320° |
| 2026-04-23 19:13 | 36.10458 | 26.22336 | 35977 ft | 444 kts | 320° |
| 2026-04-23 19:14 | 36.15456 | 26.17711 | 35987 ft | 444 kts | 320° |
| 2026-04-23 19:14 | 36.20373 | 26.13152 | 35993 ft | 444 kts | 320° |
| 2026-04-23 19:15 | 36.25285 | 26.08591 | 35993 ft | 444 kts | 320° |
| 2026-04-23 19:15 | 36.30209 | 26.04012 | 35993 ft | 444 kts | 320° |
| 2026-04-23 19:16 | 36.35154 | 25.99406 | 35994 ft | 443 kts | 320° |
| 2026-04-23 19:16 | 36.40052 | 25.94835 | 35993 ft | 445 kts | 320° |
| 2026-04-23 19:17 | 36.47443 | 25.87926 | 35993 ft | 444 kts | 320° |
| 2026-04-23 19:17 | 36.52381 | 25.83301 | 35993 ft | 444 kts | 320° |
| 2026-04-23 19:18 | 36.57269 | 25.78713 | 35975 ft | 444 kts | 320° |
| 2026-04-23 19:18 | 36.59743 | 25.76391 | 35718 ft | 438 kts | 320° |
| 2026-04-23 19:18 | 36.62131 | 25.74148 | 35469 ft | 429 kts | 320° |
| 2026-04-23 19:19 | 36.66827 | 25.69728 | 34976 ft | 425 kts | 319° |
| 2026-04-23 19:19 | 36.69158 | 25.67528 | 34731 ft | 427 kts | 320° |
| 2026-04-23 19:20 | 36.73891 | 25.63060 | 34236 ft | 430 kts | 320° |
| 2026-04-23 19:20 | 36.76233 | 25.60716 | 33979 ft | 429 kts | 313° |
| 2026-04-23 19:20 | 36.78155 | 25.57896 | 33730 ft | 425 kts | 302° |
| 2026-04-23 19:20 | 36.79791 | 25.54897 | 33488 ft | 425 kts | 302° |
| 2026-04-23 19:21 | 36.81515 | 25.51865 | 33234 ft | 427 kts | 304° |
| 2026-04-23 19:21 | 36.85085 | 25.45984 | 32734 ft | 428 kts | 304° |
| 2026-04-23 19:21 | 36.86901 | 25.43002 | 32480 ft | 428 kts | 304° |
| 2026-04-23 19:22 | 36.88681 | 25.40085 | 32232 ft | 429 kts | 305° |
| 2026-04-23 19:22 | 36.90509 | 25.37099 | 31979 ft | 429 kts | 305° |
| 2026-04-23 19:22 | 36.94064 | 25.31314 | 31489 ft | 430 kts | 304° |
| 2026-04-23 19:23 | 36.95890 | 25.28345 | 31238 ft | 430 kts | 304° |
| 2026-04-23 19:23 | 36.97707 | 25.25390 | 30988 ft | 431 kts | 304° |
| 2026-04-23 19:23 | 36.99512 | 25.22454 | 30741 ft | 432 kts | 305° |
| 2026-04-23 19:24 | 37.03170 | 25.16500 | 29992 ft | 431 kts | 305° |
| 2026-04-23 19:24 | 37.04980 | 25.13552 | 29104 ft | 432 kts | 305° |
| 2026-04-23 19:24 | 37.08613 | 25.07627 | 27545 ft | 426 kts | 305° |
| 2026-04-23 19:25 | 37.12187 | 25.01788 | 26202 ft | 426 kts | 305° |
| 2026-04-23 19:25 | 37.15755 | 24.95951 | 24831 ft | 418 kts | 305° |
| 2026-04-23 19:26 | 37.19231 | 24.90255 | 23490 ft | 409 kts | 305° |
| 2026-04-23 19:26 | 37.20945 | 24.87443 | 22822 ft | 404 kts | 306° |
| 2026-04-23 19:27 | 37.24317 | 24.81904 | 21496 ft | 396 kts | 306° |
| 2026-04-23 19:27 | 37.29217 | 24.73837 | 19543 ft | 384 kts | 306° |
| 2026-04-23 19:28 | 37.32416 | 24.68560 | 18251 ft | 377 kts | 306° |
| 2026-04-23 19:28 | 37.35534 | 24.63408 | 16980 ft | 370 kts | 306° |
| 2026-04-23 19:29 | 37.37094 | 24.60828 | 16338 ft | 367 kts | 306° |
| 2026-04-23 19:29 | 37.40136 | 24.55790 | 15090 ft | 360 kts | 306° |
| 2026-04-23 19:30 | 37.43116 | 24.50849 | 13858 ft | 354 kts | 307° |
| 2026-04-23 19:30 | 37.44572 | 24.48364 | 13229 ft | 351 kts | 302° |
| 2026-04-23 19:30 | 37.46713 | 24.42903 | 12050 ft | 351 kts | 295° |
| 2026-04-23 19:31 | 37.47723 | 24.40192 | 11649 ft | 341 kts | 295° |
| 2026-04-23 19:31 | 37.48725 | 24.37504 | 11427 ft | 340 kts | 295° |
| 2026-04-23 19:31 | 37.49744 | 24.34762 | 11265 ft | 344 kts | 294° |
| 2026-04-23 19:31 | 37.50737 | 24.32089 | 11103 ft | 329 kts | 294° |
| 2026-04-23 19:32 | 37.51673 | 24.29569 | 10959 ft | 314 kts | 294° |
| 2026-04-23 19:32 | 37.52576 | 24.27136 | 10812 ft | 300 kts | 294° |
| 2026-04-23 19:32 | 37.53444 | 24.24796 | 10636 ft | 288 kts | 294° |
| 2026-04-23 19:32 | 37.54283 | 24.22530 | 10501 ft | 282 kts | 294° |
| 2026-04-23 19:33 | 37.55107 | 24.20300 | 10362 ft | 284 kts | 294° |
| 2026-04-23 19:33 | 37.55947 | 24.18024 | 10216 ft | 285 kts | 294° |
| 2026-04-23 19:33 | 37.57623 | 24.13478 | 9592 ft | 288 kts | 294° |
| 2026-04-23 19:34 | 37.58453 | 24.11214 | 9196 ft | 285 kts | 294° |
| 2026-04-23 19:34 | 37.59268 | 24.08983 | 8813 ft | 282 kts | 295° |
| 2026-04-23 19:34 | 37.60888 | 24.04523 | 8055 ft | 276 kts | 295° |
| 2026-04-23 19:35 | 37.61682 | 24.02326 | 7681 ft | 274 kts | 295° |
| 2026-04-23 19:35 | 37.62463 | 24.00157 | 7313 ft | 271 kts | 295° |
| 2026-04-23 19:35 | 37.63234 | 23.98008 | 6948 ft | 270 kts | 295° |
| 2026-04-23 19:35 | 37.64000 | 23.95864 | 6584 ft | 269 kts | 295° |
| 2026-04-23 19:36 | 37.64762 | 23.93724 | 6221 ft | 268 kts | 295° |
| 2026-04-23 19:36 | 37.65527 | 23.91568 | 5855 ft | 267 kts | 295° |
| 2026-04-23 19:36 | 37.66277 | 23.89445 | 5562 ft | 263 kts | 295° |
| 2026-04-23 19:36 | 37.67021 | 23.87334 | 5319 ft | 264 kts | 295° |
| 2026-04-23 19:37 | 37.67765 | 23.85218 | 5060 ft | 264 kts | 295° |
| 2026-04-23 19:37 | 37.68507 | 23.83103 | 4804 ft | 263 kts | 295° |
| 2026-04-23 19:37 | 37.69247 | 23.80990 | 4473 ft | 263 kts | 295° |
| 2026-04-23 19:37 | 37.69976 | 23.78901 | 4157 ft | 259 kts | 295° |
| 2026-04-23 19:38 | 37.70690 | 23.76849 | 4028 ft | 247 kts | 295° |
| 2026-04-23 19:38 | 37.71362 | 23.74911 | 3962 ft | 240 kts | 295° |
| 2026-04-23 19:38 | 37.72028 | 23.72995 | 3892 ft | 235 kts | 295° |
| 2026-04-23 19:38 | 37.72685 | 23.71102 | 3831 ft | 233 kts | 295° |
| 2026-04-23 19:39 | 37.73351 | 23.69243 | 3775 ft | 233 kts | 300° |
| 2026-04-23 19:39 | 37.74410 | 23.67739 | 3719 ft | 231 kts | 329° |
| 2026-04-23 19:39 | 37.75929 | 23.67152 | 3660 ft | 232 kts | 0° |
| 2026-04-23 19:39 | 37.77496 | 23.67666 | 3484 ft | 236 kts | 31° |
| 2026-04-23 19:40 | 37.78589 | 23.69105 | 3356 ft | 227 kts | 63° |
| 2026-04-23 19:40 | 37.78874 | 23.71007 | 3338 ft | 214 kts | 97° |
| 2026-04-23 19:40 | 37.78530 | 23.72749 | 3368 ft | 194 kts | 105° |
| 2026-04-23 19:40 | 37.78210 | 23.74352 | 3353 ft | 188 kts | 94° |
| 2026-04-23 19:41 | 37.78366 | 23.75968 | 3379 ft | 186 kts | 74° |
| 2026-04-23 19:41 | 37.78677 | 23.77523 | 3369 ft | 176 kts | 75° |
| 2026-04-23 19:41 | 37.78992 | 23.79011 | 3359 ft | 175 kts | 66° |
| 2026-04-23 19:41 | 37.79737 | 23.80178 | 3269 ft | 174 kts | 33° |
| 2026-04-23 19:42 | 37.80732 | 23.81049 | 3057 ft | 174 kts | 37° |
| 2026-04-23 19:42 | 37.81684 | 23.81963 | 2942 ft | 170 kts | 36° |
| 2026-04-23 19:42 | 37.82631 | 23.82861 | 2730 ft | 172 kts | 36° |
| 2026-04-23 19:42 | 37.83577 | 23.83756 | 2504 ft | 163 kts | 36° |
| 2026-04-23 19:43 | 37.84462 | 23.84595 | 2287 ft | 151 kts | 36° |
| 2026-04-23 19:43 | 37.85275 | 23.85365 | 2104 ft | 143 kts | 36° |
| 2026-04-23 19:43 | 37.86066 | 23.86115 | 1893 ft | 143 kts | 36° |
| 2026-04-23 19:43 | 37.86864 | 23.86871 | 1698 ft | 142 kts | 36° |
| 2026-04-23 19:44 | 37.87654 | 23.87620 | 1505 ft | 142 kts | 36° |
| 2026-04-23 19:44 | 37.88438 | 23.88364 | 1314 ft | 141 kts | 37° |
| 2026-04-23 19:44 | 37.89220 | 23.89104 | 1120 ft | 140 kts | 36° |
| 2026-04-23 19:44 | 37.90001 | 23.89845 | 921 ft | 140 kts | 37° |
| 2026-04-23 19:45 | 37.90772 | 23.90587 | 742 ft | 140 kts | 37° |
| 2026-04-23 19:45 | 37.91550 | 23.91328 | 569 ft | 139 kts | 36° |
| 2026-04-23 19:45 | 37.92324 | 23.92056 | 407 ft | 139 kts | 36° |
| 2026-04-23 19:45 | 37.93075 | 23.92767 | 318 ft | 120 kts | 37° |
| 2026-04-23 19:46 | 37.93572 | 23.93243 | 317 ft | 60 kts | 37° |
| 2026-04-23 19:46 | 37.93785 | 23.93447 | 317 ft | 22 kts | 37° |
| 2026-04-23 19:46 | 37.93880 | 23.93580 | 317 ft | 17 kts | 55° |
| 2026-04-23 19:46 | 37.93927 | 23.93686 | 317 ft | 9 kts | 64° |
| 2026-04-23 19:47 | 37.93933 | 23.93702 | 317 ft | 0 kts | 65° |
| 2026-04-23 19:47 | 37.93935 | 23.93708 | 317 ft | 0 kts | 65° |
| 2026-04-23 19:47 | 37.93938 | 23.93716 | 317 ft | 1 kts | 65° |
| 2026-04-23 19:47 | 37.93943 | 23.93733 | 317 ft | 3 kts | 70° |
| 2026-04-23 19:48 | 37.93948 | 23.93777 | 317 ft | 6 kts | 96° |
| 2026-04-23 19:48 | 37.93914 | 23.93822 | 317 ft | 8 kts | 168° |
| 2026-04-23 19:48 | 37.93850 | 23.93787 | 317 ft | 11 kts | 216° |
| 2026-04-23 19:48 | 37.93777 | 23.93717 | 317 ft | 14 kts | 217° |
| 2026-04-23 19:49 | 37.93687 | 23.93631 | 317 ft | 17 kts | 217° |
| 2026-04-23 19:49 | 37.93582 | 23.93530 | 317 ft | 20 kts | 217° |
| 2026-04-23 19:49 | 37.93552 | 23.93501 | 317 ft | 0 kts | 217° |
| 2026-04-23 19:49 | 37.93542 | 23.93491 | 317 ft | 3 kts | 217° |
| 2026-04-23 19:50 | 37.93512 | 23.93464 | 317 ft | 6 kts | 217° |
| 2026-04-23 19:50 | 37.93462 | 23.93433 | 317 ft | 9 kts | 182° |
| 2026-04-23 19:50 | 37.93401 | 23.93483 | 317 ft | 12 kts | 127° |
| 2026-04-23 19:50 | 37.93344 | 23.93581 | 317 ft | 15 kts | 126° |
| 2026-04-23 19:51 | 37.93277 | 23.93695 | 317 ft | 17 kts | 127° |
| 2026-04-23 19:51 | 37.93209 | 23.93808 | 317 ft | 13 kts | 127° |
| 2026-04-23 19:51 | 37.93149 | 23.93907 | 317 ft | 15 kts | 127° |
| 2026-04-23 19:51 | 37.93086 | 23.94017 | 317 ft | 16 kts | 126° |
| 2026-04-23 19:52 | 37.93015 | 23.94134 | 317 ft | 17 kts | 127° |
| 2026-04-23 19:52 | 37.92944 | 23.94252 | 317 ft | 8 kts | 127° |
| 2026-04-23 19:52 | 37.92913 | 23.94304 | 317 ft | 2 kts | 127° |
| 2026-04-23 19:52 | 37.92913 | 23.94306 | 317 ft | 0 kts | 127° |
| 2026-04-23 19:53 | 37.92910 | 23.94311 | 317 ft | 2 kts | 127° |
| 2026-04-23 19:53 | 37.92893 | 23.94339 | 317 ft | 5 kts | 127° |
| 2026-04-23 19:53 | 37.92882 | 23.94393 | 317 ft | 7 kts | 76° |
| 2026-04-23 19:54 | 37.92926 | 23.94452 | 317 ft | 10 kts | 38° |
| 2026-04-23 19:54 | 37.92996 | 23.94518 | 317 ft | 13 kts | 36° |
| 2026-04-23 19:54 | 37.93077 | 23.94580 | 317 ft | 13 kts | 16° |
| 2026-04-23 19:54 | 37.93165 | 23.94597 | 317 ft | 12 kts | 8° |
| 2026-04-23 19:55 | 37.93247 | 23.94637 | 317 ft | 12 kts | 34° |
| 2026-04-23 19:55 | 37.93313 | 23.94703 | 317 ft | 12 kts | 49° |
| 2026-04-23 19:55 | 37.93325 | 23.94802 | 317 ft | 11 kts | 82° |
| 2026-04-23 19:55 | 37.93373 | 23.94877 | 317 ft | 11 kts | 34° |
| 2026-04-23 19:56 | 37.93446 | 23.94875 | 317 ft | 11 kts | 338° |
| 2026-04-23 19:56 | 37.93518 | 23.94894 | 317 ft | 11 kts | 34° |
| 2026-04-23 19:56 | 37.93581 | 23.94954 | 317 ft | 11 kts | 37° |
| 2026-04-23 19:56 | 37.93646 | 23.95015 | 317 ft | 11 kts | 37° |
| 2026-04-23 19:57 | 37.93680 | 23.95047 | 317 ft | 2 kts | 27° |
| 2026-04-23 19:57 | 37.93701 | 23.95044 | 317 ft | 3 kts | 331° |
| 2026-04-23 19:57 | 37.93720 | 23.95020 | 317 ft | 4 kts | 307° |
| 2026-04-23 19:57 | 37.93738 | 23.94991 | 317 ft | 2 kts | 307° |
| 2026-04-23 19:58 | 37.93741 | 23.94986 | 317 ft | 0 kts | 307° |
| 2026-04-23 19:58 | 37.93742 | 23.94983 | 317 ft | 0 kts | 307° |
| 2026-04-23 19:58 | 37.93744 | 23.94980 | 317 ft | 0 kts | 307° |
| 2026-04-23 19:58 | 37.93745 | 23.94978 | 317 ft | 0 kts | 307° |